Time;durP1;ratioP1;P1;durP2;ratioP2;P2;SDS_P1;SDS_P2;PMS_P1;PMS_P2;Temp;Humidity;BMP_temperature;BMP_pressure;BME280_temperature;BME280_humidity;BME280_pressure;Samples;Min_cycle;Max_cycle;Signal;HPM_P1;HPM_P2
2023/06/06 00:00:57;;;;;;;8.17;7.47;;;18.10;98.30;;;;;;4955285;28;20235;-59
2023/06/06 00:03:25;;;;;;;8.00;7.40;;;18.00;98.50;;;;;;4953592;28;20177;-59
2023/06/06 00:05:51;;;;;;;7.47;6.87;;;18.00;98.70;;;;;;4954620;28;20429;-59
2023/06/06 00:08:20;;;;;;;8.63;7.70;;;18.00;98.90;;;;;;4954381;28;20409;-59
2023/06/06 00:10:46;;;;;;;8.43;7.67;;;17.90;98.90;;;;;;4954648;28;20491;-60
2023/06/06 00:13:13;;;;;;;7.77;7.27;;;17.90;99.20;;;;;;4952948;28;20455;-59
2023/06/06 00:15:38;;;;;;;8.57;7.90;;;17.90;99.10;;;;;;4954047;28;20456;-59
2023/06/06 00:18:04;;;;;;;7.43;6.93;;;17.80;99.60;;;;;;4954285;28;20424;-59
2023/06/06 00:20:32;;;;;;;8.67;7.80;;;17.80;99.60;;;;;;4953139;28;20231;-59
2023/06/06 00:22:59;;;;;;;7.90;7.20;;;17.70;99.90;;;;;;4954291;29;20776;-59
2023/06/06 00:25:25;;;;;;;7.93;7.33;;;17.70;99.90;;;;;;4953999;29;20468;-59
2023/06/06 00:27:51;;;;;;;8.23;7.47;;;17.70;99.90;;;;;;4954794;29;20787;-59
2023/06/06 00:30:16;;;;;;;8.17;7.53;;;17.70;99.90;;;;;;4953955;29;20416;-59
2023/06/06 00:32:42;;;;;;;7.93;7.40;;;17.60;99.90;;;;;;4954624;29;20217;-59
2023/06/06 00:35:09;;;;;;;8.57;7.70;;;17.60;99.90;;;;;;4954705;29;20653;-59
2023/06/06 00:37:35;;;;;;;8.80;8.20;;;17.60;99.90;;;;;;4954218;28;20169;-59
2023/06/06 00:40:01;;;;;;;8.60;8.00;;;17.50;99.90;;;;;;4954588;29;20504;-59
2023/06/06 00:42:27;;;;;;;8.10;7.50;;;17.50;99.90;;;;;;4953944;28;20177;-59
2023/06/06 00:44:53;;;;;;;8.87;8.17;;;17.50;99.90;;;;;;4954184;29;20749;-59
2023/06/06 00:47:19;;;;;;;8.43;7.63;;;17.40;99.90;;;;;;4951312;29;20182;-59
2023/06/06 00:49:46;;;;;;;8.77;8.07;;;17.40;99.90;;;;;;4953751;29;20268;-59
2023/06/06 00:52:12;;;;;;;9.63;8.70;;;17.40;99.90;;;;;;4952741;29;20453;-59
2023/06/06 00:54:40;;;;;;;8.80;8.00;;;17.40;99.90;;;;;;4954196;29;20409;-60
2023/06/06 00:57:07;;;;;;;9.30;8.33;;;17.40;99.90;;;;;;4950341;28;20432;-59
2023/06/06 00:59:33;;;;;;;8.97;8.00;;;17.30;99.90;;;;;;4953413;29;20437;-59
2023/06/06 01:02:03;;;;;;;9.47;8.60;;;17.30;99.90;;;;;;4954368;29;20882;-59
2023/06/06 01:04:29;;;;;;;8.80;8.10;;;17.20;99.90;;;;;;4952289;28;20537;-59
2023/06/06 01:06:57;;;;;;;9.73;8.70;;;17.20;99.90;;;;;;4954255;29;20427;-59
2023/06/06 01:09:23;;;;;;;9.70;8.80;;;17.20;99.90;;;;;;4953491;28;20409;-59
2023/06/06 01:11:57;;;;;;;8.40;7.70;;;17.10;99.90;;;;;;4954134;29;20476;-59
2023/06/06 01:14:29;;;;;;;12.40;8.00;;;17.10;99.90;;;;;;4953381;29;20409;-59
2023/06/06 01:16:57;;;;;;;9.00;8.30;;;17.10;99.90;;;;;;4951958;28;20579;-59
2023/06/06 01:19:29;;;;;;;8.63;7.80;;;17.10;99.90;;;;;;4952906;28;20405;-59
2023/06/06 01:21:58;;;;;;;9.20;8.40;;;17.00;99.90;;;;;;4954078;29;20420;-59
2023/06/06 01:24:26;;;;;;;8.93;8.07;;;17.10;99.90;;;;;;4953391;28;20419;-59
2023/06/06 01:26:54;;;;;;;9.47;8.57;;;17.00;99.90;;;;;;4953303;28;20463;-59
2023/06/06 01:29:23;;;;;;;9.43;8.30;;;17.00;99.90;;;;;;4953376;28;20397;-59
2023/06/06 01:32:00;;;;;;;9.10;8.30;;;16.90;99.90;;;;;;4953959;29;20457;-59
2023/06/06 01:34:50;;;;;;;9.47;8.70;;;16.80;99.90;;;;;;4953579;29;20176;-59
2023/06/06 01:37:34;;;;;;;9.50;8.50;;;16.90;99.90;;;;;;4952564;29;20425;-59
2023/06/06 01:40:05;;;;;;;9.27;8.50;;;16.90;99.90;;;;;;4954136;29;20413;-59
2023/06/06 01:42:35;;;;;;;9.20;8.37;;;16.90;99.90;;;;;;4952199;29;20917;-58
2023/06/06 01:45:01;;;;;;;10.07;8.10;;;16.90;99.90;;;;;;4953806;28;20420;-59
2023/06/06 01:47:27;;;;;;;9.27;8.43;;;16.90;99.90;;;;;;4952112;29;20421;-59
2023/06/06 01:49:54;;;;;;;9.10;8.50;;;16.90;99.90;;;;;;4953912;28;20412;-59
2023/06/06 01:52:21;;;;;;;9.90;8.90;;;16.90;99.90;;;;;;4953001;28;20539;-59
2023/06/06 01:54:48;;;;;;;9.57;8.70;;;16.80;99.90;;;;;;4952973;28;20463;-59
2023/06/06 01:57:15;;;;;;;9.93;8.20;;;16.80;99.90;;;;;;4953656;28;20444;-59
2023/06/06 01:59:41;;;;;;;8.80;7.90;;;16.80;99.90;;;;;;4953190;28;20412;-59
2023/06/06 02:02:06;;;;;;;9.27;8.47;;;16.70;99.90;;;;;;4953883;28;20948;-59
2023/06/06 02:04:32;;;;;;;9.33;8.33;;;16.70;99.90;;;;;;4952963;28;20173;-59
2023/06/06 02:06:58;;;;;;;9.20;8.40;;;16.70;99.90;;;;;;4952860;29;20673;-59
2023/06/06 02:09:23;;;;;;;9.30;8.60;;;16.70;99.90;;;;;;4954619;28;20182;-59
2023/06/06 02:11:49;;;;;;;9.27;8.37;;;16.70;99.90;;;;;;4956987;29;20221;-59
2023/06/06 02:14:15;;;;;;;10.00;9.00;;;16.70;99.90;;;;;;4957209;28;20188;-59
2023/06/06 02:16:45;;;;;;;10.07;9.07;;;16.70;99.90;;;;;;4955738;28;20243;-59
2023/06/06 02:19:10;;;;;;;10.50;9.50;;;16.70;99.90;;;;;;4956638;28;20419;-59
2023/06/06 02:21:36;;;;;;;9.57;8.77;;;16.60;99.90;;;;;;4956379;29;20409;-59
2023/06/06 02:24:02;;;;;;;10.57;9.27;;;16.50;99.90;;;;;;4957309;29;20271;-59
2023/06/06 02:26:28;;;;;;;9.83;8.93;;;16.50;99.90;;;;;;4956202;29;20450;-59
2023/06/06 02:28:54;;;;;;;9.67;8.80;;;16.50;99.90;;;;;;4956949;28;20405;-59
2023/06/06 02:31:21;;;;;;;10.10;9.20;;;16.50;99.90;;;;;;4955157;28;20968;-59
2023/06/06 02:33:47;;;;;;;10.10;9.10;;;16.50;99.90;;;;;;4957071;28;20826;-59
2023/06/06 02:36:14;;;;;;;10.00;9.20;;;16.50;99.90;;;;;;4956773;29;20401;-59
2023/06/06 02:38:42;;;;;;;10.47;9.50;;;16.50;99.90;;;;;;4955344;28;20381;-59
2023/06/06 02:41:08;;;;;;;10.73;9.70;;;16.50;99.90;;;;;;4956805;28;20409;-59
2023/06/06 02:43:35;;;;;;;9.93;9.07;;;16.40;99.90;;;;;;4954444;29;20567;-59
2023/06/06 02:46:04;;;;;;;9.60;8.83;;;16.30;99.90;;;;;;4955752;29;20239;-59
2023/06/06 02:48:30;;;;;;;10.57;9.57;;;16.20;99.90;;;;;;4953899;29;20436;-59
2023/06/06 02:50:56;;;;;;;9.87;8.90;;;16.10;99.90;;;;;;4956194;29;20841;-59
2023/06/06 02:53:23;;;;;;;11.07;10.00;;;16.10;99.90;;;;;;4955761;29;20183;-59
2023/06/06 02:55:49;;;;;;;10.80;9.80;;;16.10;99.90;;;;;;4955495;28;20268;-59
2023/06/06 02:58:28;;;;;;;11.07;9.97;;;16.00;99.90;;;;;;4955704;29;20519;-59
2023/06/06 03:00:56;;;;;;;10.80;9.90;;;15.90;99.90;;;;;;4956676;29;20835;-59
2023/06/06 03:03:25;;;;;;;10.80;9.70;;;15.90;99.90;;;;;;4955659;28;20739;-59
2023/06/06 03:05:51;;;;;;;11.67;10.40;;;15.80;99.90;;;;;;4956365;28;20412;-59
2023/06/06 03:08:18;;;;;;;10.53;9.47;;;15.80;99.90;;;;;;4956280;28;20418;-59
2023/06/06 03:10:48;;;;;;;10.10;9.20;;;15.80;99.90;;;;;;4954430;29;20404;-59
2023/06/06 03:13:15;;;;;;;10.57;9.70;;;15.80;99.90;;;;;;4956441;29;20424;-59
2023/06/06 03:15:41;;;;;;;11.03;10.00;;;15.80;99.90;;;;;;4954533;29;20853;-59
2023/06/06 03:18:11;;;;;;;10.40;9.50;;;15.80;99.90;;;;;;4956125;28;20471;-59
2023/06/06 03:20:41;;;;;;;10.70;9.80;;;15.70;99.90;;;;;;4953499;28;20432;-59
2023/06/06 03:23:10;;;;;;;10.30;9.40;;;15.70;99.90;;;;;;4956310;28;20558;-59
2023/06/06 03:25:37;;;;;;;10.20;9.30;;;15.80;99.90;;;;;;4955190;29;20427;-59
2023/06/06 03:28:02;;;;;;;10.00;9.20;;;15.70;99.90;;;;;;4955921;28;20412;-59
2023/06/06 03:30:28;;;;;;;10.63;9.37;;;15.60;99.90;;;;;;4955055;29;20467;-59
2023/06/06 03:32:55;;;;;;;9.37;8.57;;;15.60;99.90;;;;;;4954917;29;20908;-59
2023/06/06 03:35:22;;;;;;;10.33;9.23;;;15.60;99.90;;;;;;4955489;28;20204;-59
2023/06/06 03:37:47;;;;;;;9.80;9.00;;;15.70;99.90;;;;;;4954934;29;20427;-59
2023/06/06 03:40:13;;;;;;;10.93;10.03;;;15.70;99.90;;;;;;4955715;29;20404;-60
2023/06/06 03:42:39;;;;;;;10.67;9.27;;;15.70;99.90;;;;;;4954423;28;20186;-59
2023/06/06 03:45:05;;;;;;;13.20;12.30;;;15.70;99.90;;;;;;4953664;29;20204;-59
2023/06/06 03:47:31;;;;;;;9.53;8.60;;;15.70;99.90;;;;;;4953782;28;20192;-59
2023/06/06 03:49:57;;;;;;;10.50;9.50;;;15.70;99.90;;;;;;4955736;29;20411;-59
2023/06/06 03:52:23;;;;;;;12.70;11.43;;;15.70;99.90;;;;;;4955091;29;20208;-59
2023/06/06 03:54:49;;;;;;;11.70;10.60;;;15.70;99.90;;;;;;4954973;29;20183;-59
2023/06/06 03:57:16;;;;;;;13.30;10.90;;;15.70;99.90;;;;;;4953095;29;20999;-60
2023/06/06 03:59:42;;;;;;;10.37;9.47;;;15.70;99.90;;;;;;4954580;28;20176;-59
2023/06/06 04:02:07;;;;;;;12.03;10.23;;;15.70;99.90;;;;;;4955351;29;20914;-59
2023/06/06 04:04:33;;;;;;;12.80;10.30;;;15.70;99.90;;;;;;4954516;29;20184;-59
2023/06/06 04:06:59;;;;;;;10.43;9.53;;;15.70;99.90;;;;;;4955241;28;20176;-59
2023/06/06 04:09:25;;;;;;;11.00;10.10;;;15.80;99.90;;;;;;4953972;29;20564;-59
2023/06/06 04:11:50;;;;;;;10.40;9.57;;;15.80;99.90;;;;;;4954838;29;20273;-60
2023/06/06 04:14:16;;;;;;;12.67;11.37;;;15.80;99.90;;;;;;4954156;29;20180;-59
2023/06/06 04:16:42;;;;;;;10.43;9.43;;;15.80;99.90;;;;;;4953222;29;20367;-59
2023/06/06 04:19:08;;;;;;;11.00;10.07;;;15.80;99.90;;;;;;4954978;28;20173;-60
2023/06/06 04:21:33;;;;;;;10.23;9.40;;;15.80;99.90;;;;;;4954184;28;20637;-59
2023/06/06 04:24:00;;;;;;;11.20;10.17;;;15.80;99.90;;;;;;4954212;29;20663;-59
2023/06/06 04:26:32;;;;;;;11.70;10.50;;;15.90;99.90;;;;;;4954299;28;20191;-59
2023/06/06 04:29:00;;;;;;;14.07;12.97;;;15.90;99.90;;;;;;4954061;29;20442;-59
2023/06/06 04:31:28;;;;;;;11.43;10.23;;;15.90;99.90;;;;;;4954021;28;20452;-59
2023/06/06 04:33:57;;;;;;;12.80;11.60;;;15.90;99.90;;;;;;4953716;28;20518;-60
2023/06/06 04:36:23;;;;;;;13.10;11.80;;;15.90;99.90;;;;;;4954990;28;20444;-60
2023/06/06 04:38:50;;;;;;;13.93;12.67;;;15.90;99.90;;;;;;4954160;28;20401;-60
2023/06/06 04:41:16;;;;;;;15.67;14.10;;;15.80;99.90;;;;;;4954412;28;20959;-59
2023/06/06 04:43:49;;;;;;;13.63;12.43;;;15.70;99.90;;;;;;4952683;28;20504;-59
2023/06/06 04:46:21;;;;;;;13.20;10.37;;;15.50;99.90;;;;;;4952510;28;20423;-60
2023/06/06 04:48:53;;;;;;;10.40;9.40;;;15.50;99.90;;;;;;4953103;29;21191;-60
2023/06/06 04:51:21;;;;;;;11.73;10.73;;;15.60;99.90;;;;;;4953366;28;20460;-60
2023/06/06 04:53:48;;;;;;;11.83;10.70;;;15.70;99.90;;;;;;4953500;28;20464;-59
2023/06/06 04:56:14;;;;;;;15.07;13.80;;;15.70;99.90;;;;;;4954008;28;20432;-59
2023/06/06 04:58:42;;;;;;;12.27;11.00;;;15.80;99.90;;;;;;4953514;28;20421;-59
2023/06/06 05:01:07;;;;;;;16.43;14.90;;;15.90;99.90;;;;;;4953894;28;20439;-60
2023/06/06 05:03:34;;;;;;;13.00;11.80;;;16.00;99.90;;;;;;4952709;29;20428;-59
2023/06/06 05:06:02;;;;;;;15.40;10.73;;;16.10;99.90;;;;;;4953952;28;20185;-60
2023/06/06 05:08:31;;;;;;;15.60;11.73;;;16.10;99.90;;;;;;4952837;29;20765;-59
2023/06/06 05:10:58;;;;;;;12.40;10.80;;;16.20;99.90;;;;;;4954319;28;20928;-59
2023/06/06 05:13:23;;;;;;;13.63;12.37;;;16.30;99.90;;;;;;4952245;28;20445;-59
2023/06/06 05:15:49;;;;;;;17.10;12.30;;;16.40;99.90;;;;;;4952597;29;20438;-59
2023/06/06 05:18:15;;;;;;;16.47;14.57;;;16.40;99.90;;;;;;4953872;28;20621;-60
2023/06/06 05:20:41;;;;;;;17.87;14.57;;;16.40;99.90;;;;;;4952144;28;20642;-59
2023/06/06 05:23:07;;;;;;;15.63;14.07;;;16.20;99.90;;;;;;4952713;29;20483;-60
2023/06/06 05:25:34;;;;;;;19.50;17.33;;;16.00;99.90;;;;;;4952843;29;20436;-59
2023/06/06 05:28:00;;;;;;;14.20;12.60;;;15.90;99.90;;;;;;4954504;28;20179;-59
2023/06/06 05:30:25;;;;;;;15.20;13.93;;;15.70;99.90;;;;;;4952960;29;20432;-59
2023/06/06 05:32:51;;;;;;;13.87;12.40;;;15.80;99.90;;;;;;4953436;29;20219;-59
2023/06/06 05:35:17;;;;;;;16.70;13.70;;;15.80;99.90;;;;;;4953706;28;20243;-59
2023/06/06 05:37:43;;;;;;;11.83;10.53;;;15.80;99.90;;;;;;4952990;29;20272;-59
2023/06/06 05:40:12;;;;;;;15.40;14.00;;;15.70;99.90;;;;;;4953591;28;20213;-59
2023/06/06 05:42:38;;;;;;;15.97;13.30;;;15.70;99.90;;;;;;4953178;29;20430;-58
2023/06/06 05:45:06;;;;;;;16.47;11.60;;;15.60;99.90;;;;;;4956291;28;20827;-59
2023/06/06 05:47:31;;;;;;;13.30;11.90;;;15.60;99.90;;;;;;4956840;28;20439;-59
2023/06/06 05:49:57;;;;;;;12.57;10.97;;;15.70;99.90;;;;;;4956864;29;20433;-59
2023/06/06 05:52:24;;;;;;;12.00;10.23;;;15.80;99.90;;;;;;4957690;28;20746;-59
2023/06/06 05:54:54;;;;;;;14.30;12.80;;;15.90;99.90;;;;;;4956805;28;20435;-59
2023/06/06 05:57:22;;;;;;;13.90;12.40;;;16.10;99.90;;;;;;4957995;29;20397;-59
2023/06/06 05:59:48;;;;;;;13.97;12.47;;;16.00;99.90;;;;;;4956412;28;20728;-59
2023/06/06 06:02:14;;;;;;;14.13;12.07;;;15.90;99.90;;;;;;4957325;28;20436;-59
2023/06/06 06:04:45;;;;;;;13.83;10.77;;;15.80;99.90;;;;;;4956568;28;20444;-59
2023/06/06 06:07:12;;;;;;;12.90;11.53;;;15.80;99.90;;;;;;4956233;28;20457;-57
2023/06/06 06:09:37;;;;;;;12.20;10.97;;;15.90;99.90;;;;;;4956283;28;20436;-57
2023/06/06 06:12:05;;;;;;;14.70;11.50;;;16.10;99.90;;;;;;4971711;28;20471;-57
2023/06/06 06:14:31;;;;;;;18.00;10.80;;;16.20;99.90;;;;;;4955936;28;20212;-60
2023/06/06 06:16:58;;;;;;;12.63;11.40;;;16.20;99.90;;;;;;4956753;29;20463;-58
2023/06/06 06:19:23;;;;;;;17.03;13.40;;;16.40;99.90;;;;;;4956789;29;20503;-57
2023/06/06 06:21:49;;;;;;;12.77;11.53;;;16.50;99.90;;;;;;4956385;28;20264;-58
2023/06/06 06:24:15;;;;;;;14.70;11.23;;;16.50;99.90;;;;;;4957518;28;20179;-58
2023/06/06 06:26:41;;;;;;;15.20;11.67;;;16.40;99.90;;;;;;4956884;29;20654;-57
2023/06/06 06:29:06;;;;;;;12.93;11.57;;;16.30;99.90;;;;;;4957637;29;20565;-60
2023/06/06 06:31:32;;;;;;;12.33;11.03;;;16.20;99.90;;;;;;4956697;29;20211;-59
2023/06/06 06:33:58;;;;;;;13.07;10.80;;;16.10;99.90;;;;;;4957310;29;20184;-60
2023/06/06 06:36:24;;;;;;;14.17;11.20;;;16.20;99.90;;;;;;4955675;29;20272;-60
2023/06/06 06:38:50;;;;;;;13.33;10.80;;;16.40;99.90;;;;;;4954719;29;20177;-60
2023/06/06 06:41:15;;;;;;;12.47;11.20;;;16.60;99.90;;;;;;4954558;28;20503;-60
2023/06/06 06:43:41;;;;;;;17.00;14.53;;;16.50;99.90;;;;;;4953925;29;20655;-60
2023/06/06 06:46:08;;;;;;;11.63;10.50;;;16.60;99.90;;;;;;4956123;28;20599;-60
2023/06/06 06:48:34;;;;;;;12.87;11.53;;;16.80;99.90;;;;;;4955048;28;20188;-61
2023/06/06 06:51:00;;;;;;;14.37;12.50;;;16.90;99.90;;;;;;4956397;28;20447;-60
2023/06/06 06:53:26;;;;;;;16.73;12.43;;;16.90;99.90;;;;;;4956501;28;20704;-59
2023/06/06 06:55:52;;;;;;;14.90;11.40;;;17.00;99.90;;;;;;4954988;28;20463;-59
2023/06/06 06:58:25;;;;;;;15.60;11.80;;;17.10;99.90;;;;;;4956994;28;20437;-59
2023/06/06 07:00:52;;;;;;;12.37;11.10;;;17.20;99.90;;;;;;4953723;28;20189;-59
2023/06/06 07:03:18;;;;;;;18.33;13.83;;;17.30;99.90;;;;;;4955578;29;20420;-60
2023/06/06 07:05:44;;;;;;;13.40;11.70;;;17.50;99.90;;;;;;4955959;28;20428;-59
2023/06/06 07:08:10;;;;;;;14.07;12.47;;;17.60;99.90;;;;;;4956712;28;20467;-59
2023/06/06 07:10:36;;;;;;;14.53;11.93;;;17.70;99.90;;;;;;4956054;29;20313;-60
2023/06/06 07:13:01;;;;;;;14.00;11.83;;;17.80;99.90;;;;;;4956764;28;20633;-59
2023/06/06 07:15:27;;;;;;;13.70;12.30;;;18.00;99.90;;;;;;4956650;28;20662;-60
2023/06/06 07:17:54;;;;;;;13.80;11.90;;;18.20;99.90;;;;;;4954751;29;20534;-60
2023/06/06 07:20:23;;;;;;;15.83;12.70;;;18.30;99.90;;;;;;4955097;28;20478;-59
2023/06/06 07:22:52;;;;;;;17.87;15.17;;;18.40;99.90;;;;;;4953038;29;20792;-61
2023/06/06 07:25:18;;;;;;;15.30;13.77;;;18.60;99.90;;;;;;4953380;28;20432;-59
2023/06/06 07:27:44;;;;;;;15.63;13.57;;;18.70;99.90;;;;;;4951209;29;20436;-59
2023/06/06 07:30:14;;;;;;;14.47;13.00;;;18.80;99.90;;;;;;4954451;28;20181;-61
2023/06/06 07:32:46;;;;;;;13.03;11.63;;;18.80;99.90;;;;;;4942920;29;20957;-59
2023/06/06 07:35:14;;;;;;;14.90;11.97;;;19.00;99.90;;;;;;4937142;29;20901;-59
2023/06/06 07:37:40;;;;;;;14.50;11.50;;;19.20;99.90;;;;;;4955126;29;20417;-59
2023/06/06 07:40:08;;;;;;;13.00;11.00;;;19.30;99.90;;;;;;4955840;29;20771;-59
2023/06/06 07:42:35;;;;;;;14.00;12.47;;;19.40;99.90;;;;;;4955705;28;20456;-59
2023/06/06 07:45:02;;;;;;;14.87;12.20;;;19.60;99.90;;;;;;4954371;29;20773;-59
2023/06/06 07:47:28;;;;;;;15.60;12.33;;;19.70;99.90;;;;;;4955799;29;20476;-59
2023/06/06 07:49:54;;;;;;;12.50;10.87;;;19.90;99.90;;;;;;4955401;28;20449;-59
2023/06/06 07:52:20;;;;;;;14.50;12.17;;;20.00;99.90;;;;;;4954531;29;20212;-59
2023/06/06 07:54:46;;;;;;;16.37;13.37;;;20.10;99.90;;;;;;4954932;28;20432;-63
2023/06/06 07:57:15;;;;;;;17.77;14.60;;;20.30;99.90;;;;;;4951820;29;20436;-59
2023/06/06 07:59:42;;;;;;;19.17;14.80;;;20.50;99.90;;;;;;4953417;28;20429;-59
2023/06/06 08:02:08;;;;;;;16.70;14.60;;;20.60;99.90;;;;;;4954074;29;20428;-59
2023/06/06 08:04:34;;;;;;;12.60;11.27;;;20.70;99.90;;;;;;4954477;29;20448;-59
2023/06/06 08:07:03;;;;;;;15.27;11.97;;;20.80;99.90;;;;;;4954594;28;20432;-59
2023/06/06 08:09:30;;;;;;;13.10;11.70;;;20.90;99.90;;;;;;4938525;29;20536;-60
2023/06/06 08:11:57;;;;;;;13.27;11.77;;;21.00;99.90;;;;;;4954727;29;20484;-59
2023/06/06 08:14:22;;;;;;;325.10;261.50;;;21.10;99.90;;;;;;4955266;29;20798;-60
2023/06/06 08:16:49;;;;;;;100.93;80.80;;;21.20;99.90;;;;;;4954197;28;20511;-60
2023/06/06 08:19:14;;;;;;;21.80;15.20;;;21.30;99.90;;;;;;4954202;28;20637;-60
2023/06/06 08:21:40;;;;;;;12.93;11.60;;;21.50;99.90;;;;;;4953619;29;20416;-60
2023/06/06 08:24:06;;;;;;;13.97;12.47;;;21.60;99.90;;;;;;4955282;28;20508;-60
2023/06/06 08:26:32;;;;;;;12.00;10.70;;;21.70;99.90;;;;;;4955196;29;20184;-60
2023/06/06 08:28:58;;;;;;;12.10;9.87;;;21.80;99.90;;;;;;4954575;28;20188;-62
2023/06/06 08:31:24;;;;;;;13.27;11.87;;;21.90;99.50;;;;;;4954972;28;20238;-60
2023/06/06 08:33:50;;;;;;;12.50;11.27;;;22.00;98.00;;;;;;4954571;28;20183;-60
2023/06/06 08:36:16;;;;;;;12.33;11.03;;;22.10;98.70;;;;;;4953485;29;20775;-60
2023/06/06 08:38:45;;;;;;;11.17;10.13;;;22.20;98.70;;;;;;4951799;29;20433;-59
2023/06/06 08:41:14;;;;;;;12.17;10.20;;;22.30;98.80;;;;;;4953171;29;20195;-60
2023/06/06 08:43:40;;;;;;;13.33;10.70;;;22.40;97.90;;;;;;4952781;28;20456;-60
2023/06/06 08:46:06;;;;;;;11.03;10.00;;;22.50;98.40;;;;;;4954886;28;20412;-60
2023/06/06 08:48:35;;;;;;;11.90;10.80;;;22.60;96.80;;;;;;4953791;28;20736;-60
2023/06/06 08:51:03;;;;;;;11.50;10.40;;;22.70;97.40;;;;;;4946803;29;20299;-60
2023/06/06 08:53:30;;;;;;;12.20;10.40;;;22.80;96.10;;;;;;4954968;28;20829;-60
2023/06/06 08:55:57;;;;;;;14.23;11.60;;;22.80;96.20;;;;;;4954120;29;20416;-60
2023/06/06 08:58:23;;;;;;;11.90;10.80;;;22.90;95.60;;;;;;4954794;28;20419;-60
2023/06/06 09:00:53;;;;;;;12.13;10.97;;;22.90;97.20;;;;;;4954122;29;20468;-60
2023/06/06 09:03:19;;;;;;;11.80;10.80;;;23.10;98.00;;;;;;4954447;28;20416;-60
2023/06/06 09:05:47;;;;;;;12.17;10.97;;;23.20;96.60;;;;;;4954196;29;20424;-60
2023/06/06 09:08:13;;;;;;;11.57;10.57;;;23.40;97.20;;;;;;4954650;28;20775;-60
2023/06/06 09:10:41;;;;;;;11.27;10.27;;;23.50;95.60;;;;;;4954733;29;20412;-60
2023/06/06 09:13:07;;;;;;;10.13;9.30;;;23.60;94.50;;;;;;4954309;28;20539;-60
2023/06/06 09:15:33;;;;;;;11.57;9.80;;;23.70;94.90;;;;;;4954736;28;20417;-60
2023/06/06 09:17:59;;;;;;;10.87;9.90;;;23.70;93.40;;;;;;4951536;29;20428;-60
2023/06/06 09:20:25;;;;;;;10.67;9.80;;;23.80;95.20;;;;;;4954320;29;20180;-60
2023/06/06 09:22:52;;;;;;;11.73;10.53;;;23.80;94.90;;;;;;4954250;28;20644;-60
2023/06/06 09:25:22;;;;;;;9.83;8.93;;;23.90;94.10;;;;;;4954569;28;20934;-60
2023/06/06 09:27:56;;;;;;;10.03;9.23;;;24.10;93.40;;;;;;4952610;29;20427;-60
2023/06/06 09:30:24;;;;;;;11.87;10.20;;;24.30;94.10;;;;;;4954627;28;20486;-60
2023/06/06 09:32:53;;;;;;;9.53;8.63;;;24.40;93.10;;;;;;4952860;29;20503;-60
2023/06/06 09:35:20;;;;;;;9.50;8.60;;;24.50;92.20;;;;;;4954463;28;20443;-60
2023/06/06 09:37:46;;;;;;;10.93;9.93;;;24.60;91.60;;;;;;4953787;28;20499;-60
2023/06/06 09:40:16;;;;;;;9.80;8.90;;;24.80;91.00;;;;;;4953414;29;20405;-60
2023/06/06 09:42:45;;;;;;;11.90;10.43;;;24.90;91.30;;;;;;4953781;28;20436;-60
2023/06/06 09:45:15;;;;;;;9.83;9.03;;;25.00;90.90;;;;;;4953945;28;20401;-60
2023/06/06 09:47:47;;;;;;;10.30;9.27;;;25.00;90.40;;;;;;4953962;29;20421;-60
2023/06/06 09:50:14;;;;;;;11.53;10.43;;;25.10;90.40;;;;;;4954467;28;20417;-60
2023/06/06 09:52:40;;;;;;;9.90;9.00;;;25.10;89.30;;;;;;4954191;29;20456;-60
2023/06/06 09:55:08;;;;;;;9.60;8.73;;;25.10;90.00;;;;;;4953662;29;20496;-60
2023/06/06 09:57:38;;;;;;;10.60;9.60;;;25.20;90.80;;;;;;4953129;29;20472;-60
2023/06/06 10:00:10;;;;;;;12.13;11.07;;;25.20;87.30;;;;;;4953514;28;20471;-60
2023/06/06 10:02:42;;;;;;;11.07;9.90;;;25.30;88.00;;;;;;4953299;29;20479;-60
2023/06/06 10:05:11;;;;;;;10.37;9.37;;;25.40;91.40;;;;;;4953732;28;20419;-60
2023/06/06 10:07:40;;;;;;;9.93;9.03;;;25.50;89.00;;;;;;4954176;28;20964;-60
2023/06/06 10:10:09;;;;;;;9.70;8.90;;;25.50;88.60;;;;;;4953536;28;20463;-60
2023/06/06 10:12:36;;;;;;;12.07;10.87;;;25.40;84.80;;;;;;4954184;29;20476;-60
2023/06/06 10:15:03;;;;;;;11.63;10.50;;;25.50;88.60;;;;;;4953440;28;20413;-60
2023/06/06 10:17:30;;;;;;;9.93;8.93;;;25.50;87.10;;;;;;4954140;28;20408;-60
2023/06/06 10:20:05;;;;;;;11.70;10.67;;;25.50;87.70;;;;;;4953176;28;20412;-60
2023/06/06 10:22:32;;;;;;;9.10;8.40;;;25.60;88.00;;;;;;4954031;28;20512;-60
2023/06/06 10:24:58;;;;;;;10.10;9.07;;;25.60;85.90;;;;;;4953446;28;20412;-62
2023/06/06 10:27:28;;;;;;;9.97;9.07;;;25.60;87.00;;;;;;4954307;29;20424;-62
2023/06/06 10:30:09;;;;;;;11.80;10.90;;;25.60;85.80;;;;;;4954276;28;20173;-62
2023/06/06 10:32:57;;;;;;;12.57;9.53;;;25.60;85.00;;;;;;4956443;29;20816;-60
2023/06/06 10:35:24;;;;;;;9.90;9.00;;;25.50;86.60;;;;;;4957359;28;20421;-60
2023/06/06 10:38:09;;;;;;;10.60;9.60;;;25.50;86.10;;;;;;4950009;28;20479;-60
2023/06/06 10:40:54;;;;;;;11.43;10.23;;;25.40;88.10;;;;;;4946842;29;20425;-60
2023/06/06 10:43:32;;;;;;;12.37;11.20;;;25.30;85.60;;;;;;4947181;29;20512;-61
2023/06/06 10:45:59;;;;;;;11.40;10.20;;;25.10;83.20;;;;;;4946976;29;20504;-61
2023/06/06 10:48:38;;;;;;;11.17;10.27;;;25.10;85.40;;;;;;4946032;28;20504;-61
2023/06/06 10:51:04;;;;;;;10.30;9.33;;;25.20;87.30;;;;;;4944703;29;20423;-60
2023/06/06 10:53:31;;;;;;;11.13;10.13;;;25.30;86.60;;;;;;4945738;29;20511;-60
2023/06/06 10:55:56;;;;;;;10.23;9.30;;;25.40;87.30;;;;;;4951783;29;20413;-60
2023/06/06 10:58:28;;;;;;;8.33;7.73;;;25.60;85.10;;;;;;4955012;29;20456;-61
2023/06/06 11:01:04;;;;;;;10.43;9.43;;;25.70;85.00;;;;;;4956205;28;20248;-61
2023/06/06 11:03:41;;;;;;;9.90;9.10;;;25.90;85.10;;;;;;4956828;28;20938;-60
2023/06/06 11:06:16;;;;;;;9.30;8.57;;;26.10;88.60;;;;;;4956385;28;20730;-60
2023/06/06 11:08:49;;;;;;;12.20;11.10;;;26.20;85.70;;;;;;4952438;28;20409;-63
2023/06/06 11:11:15;;;;;;;11.07;9.97;;;26.40;83.40;;;;;;4937427;29;20446;-63
2023/06/06 11:13:56;;;;;;;12.23;11.13;;;26.40;81.90;;;;;;4937400;29;20633;-63
2023/06/06 11:16:39;;;;;;;217.70;166.47;;;26.40;79.80;;;;;;4937463;29;20619;-63
2023/06/06 11:19:09;;;;;;;21.83;19.63;;;26.50;82.10;;;;;;4937129;29;20434;-62
2023/06/06 11:21:36;;;;;;;11.00;10.13;;;26.60;79.40;;;;;;4937408;29;20826;-62
2023/06/06 11:24:03;;;;;;;10.87;9.20;;;26.60;77.60;;;;;;4936436;29;20424;-63
2023/06/06 11:26:29;;;;;;;10.00;9.10;;;26.60;78.30;;;;;;4936543;29;20417;-62
2023/06/06 11:28:56;;;;;;;9.17;8.30;;;26.70;81.00;;;;;;4936075;29;20773;-62
2023/06/06 11:31:26;;;;;;;9.07;8.27;;;26.70;78.90;;;;;;4942458;29;20593;-63
2023/06/06 11:33:54;;;;;;;10.20;9.30;;;26.80;79.70;;;;;;4955667;28;20417;-62
2023/06/06 11:36:20;;;;;;;9.13;8.33;;;26.80;77.70;;;;;;4956526;28;20405;-63
2023/06/06 11:38:46;;;;;;;9.47;8.67;;;26.80;82.10;;;;;;4955923;29;20754;-63
2023/06/06 11:41:12;;;;;;;9.00;8.40;;;26.80;78.20;;;;;;4954729;28;20428;-63
2023/06/06 11:43:49;;;;;;;9.70;8.73;;;26.90;74.70;;;;;;4956100;29;20231;-63
2023/06/06 11:46:15;;;;;;;9.20;8.40;;;27.00;76.40;;;;;;4955008;29;20224;-63
2023/06/06 11:48:41;;;;;;;8.90;8.20;;;27.00;74.10;;;;;;4956036;28;20976;-63
2023/06/06 11:51:14;;;;;;;9.60;8.80;;;26.90;74.50;;;;;;4955350;28;20231;-62
2023/06/06 11:53:41;;;;;;;61.20;54.83;;;26.90;75.20;;;;;;4955846;29;20180;-63
2023/06/06 11:56:14;;;;;;;36.37;32.53;;;26.90;78.50;;;;;;4935531;29;20425;-62
2023/06/06 11:58:42;;;;;;;27.23;24.63;;;27.00;76.90;;;;;;4936610;29;20394;-63
2023/06/06 12:01:11;;;;;;;9.43;8.60;;;27.00;75.90;;;;;;4938031;29;20936;-62
2023/06/06 12:03:40;;;;;;;9.33;8.33;;;27.10;74.00;;;;;;4955745;28;20177;-63
2023/06/06 12:06:07;;;;;;;11.10;7.97;;;27.00;72.00;;;;;;4954993;28;20405;-62
2023/06/06 12:08:37;;;;;;;7.90;7.30;;;26.90;72.20;;;;;;4954368;29;20861;-63
2023/06/06 12:11:22;;;;;;;7.77;6.87;;;26.90;71.80;;;;;;4952808;29;20916;-62
2023/06/06 12:13:49;;;;;;;9.23;8.43;;;26.70;72.00;;;;;;4955476;28;20417;-63
2023/06/06 12:16:28;;;;;;;7.83;7.00;;;26.70;73.50;;;;;;4954711;28;20545;-63
2023/06/06 12:18:54;;;;;;;7.60;7.00;;;26.60;71.40;;;;;;4954768;28;20780;-62
2023/06/06 12:21:21;;;;;;;8.20;7.60;;;26.50;71.50;;;;;;4955460;28;20413;-63
2023/06/06 12:23:47;;;;;;;9.07;8.20;;;26.40;71.50;;;;;;4954206;29;20401;-63
2023/06/06 12:26:18;;;;;;;12.17;8.60;;;26.30;71.50;;;;;;4954747;28;20416;-62
2023/06/06 12:28:53;;;;;;;8.93;8.13;;;26.20;71.60;;;;;;4955474;28;20417;-63
2023/06/06 12:31:23;;;;;;;10.50;9.50;;;26.10;73.30;;;;;;4955219;28;20891;-63
2023/06/06 12:33:49;;;;;;;8.67;7.97;;;26.00;73.80;;;;;;4955222;28;20441;-63
2023/06/06 12:36:20;;;;;;;7.60;7.00;;;26.00;73.10;;;;;;4954338;28;20529;-63
2023/06/06 12:39:03;;;;;;;8.47;7.67;;;26.00;73.60;;;;;;4955172;28;20409;-64